createdAt,value
2023-03-06T00:00:35.724Z,97310.56
2023-03-06T00:03:38.941Z,97313.91
2023-03-06T00:06:43.578Z,97311.34
2023-03-06T00:09:46.732Z,97302.00
2023-03-06T00:12:51.919Z,97304.63
2023-03-06T00:15:55.329Z,97299.59
2023-03-06T00:18:58.528Z,97298.72
2023-03-06T00:22:03.352Z,97291.25
2023-03-06T00:25:08.408Z,97289.47
2023-03-06T00:28:12.487Z,97292.84
2023-03-06T00:31:16.139Z,97285.34
2023-03-06T00:34:19.344Z,97269.44
2023-03-06T00:37:25.652Z,97272.75
2023-03-06T00:40:28.938Z,97279.09
2023-03-06T00:43:32.118Z,97275.91
2023-03-06T00:46:35.325Z,97269.06
2023-03-06T00:49:39.028Z,97264.91
2023-03-06T00:52:43.703Z,97259.56
2023-03-06T00:55:47.161Z,97248.75
2023-03-06T00:59:04.124Z,97252.81
2023-03-06T01:02:08.227Z,97243.59
2023-03-06T01:05:13.836Z,97231.88
2023-03-06T01:08:16.983Z,97244.31
2023-03-06T01:11:20.086Z,97229.06
2023-03-06T01:14:24.867Z,97223.03
2023-03-06T01:17:28.604Z,97218.72
2023-03-06T01:20:31.927Z,97215.50
2023-03-06T01:23:35.312Z,97211.22
2023-03-06T01:26:38.452Z,97213.78
2023-03-06T01:29:42.910Z,97207.81
2023-03-06T01:32:48.089Z,97207.88
2023-03-06T01:35:51.194Z,97198.59
2023-03-06T01:38:54.398Z,97180.75
2023-03-06T01:41:57.639Z,97194.25
2023-03-06T01:45:07.414Z,97187.22
2023-03-06T01:48:11.405Z,97190.66
2023-03-06T01:51:15.240Z,97190.22
2023-03-06T01:54:22.294Z,97177.91
2023-03-06T01:57:30.824Z,97185.16
2023-03-06T02:00:35.637Z,97171.16
2023-03-06T02:03:40.685Z,97173.31
2023-03-06T02:06:44.205Z,97168.31
2023-03-06T02:09:47.527Z,97172.13
2023-03-06T02:12:52.708Z,97162.75
2023-03-06T02:15:57.638Z,97156.19
2023-03-06T02:19:03.152Z,97157.41
2023-03-06T02:22:07.129Z,97153.00
2023-03-06T02:25:16.565Z,97150.25
2023-03-06T02:28:24.018Z,97108.72
2023-03-06T02:31:29.673Z,97149.34
2023-03-06T02:34:51.638Z,97145.31
2023-03-06T02:37:57.071Z,97140.56
2023-03-06T02:41:02.636Z,97131.69
2023-03-06T02:44:08.210Z,97119.59
2023-03-06T02:47:11.804Z,97121.34
2023-03-06T02:50:15.018Z,97130.00
2023-03-06T02:53:21.006Z,97125.09
2023-03-06T02:56:24.493Z,97131.03
2023-03-06T02:59:29.382Z,97122.16
2023-03-06T03:02:33.404Z,97126.63
2023-03-06T03:05:36.946Z,97121.84
2023-03-06T03:08:47.838Z,97118.75
2023-03-06T03:11:51.042Z,97114.28
2023-03-06T03:14:56.304Z,97104.66
2023-03-06T03:17:59.454Z,97100.91
2023-03-06T03:21:03.012Z,97079.69
2023-03-06T03:24:06.670Z,97101.88
2023-03-06T03:27:10.156Z,97096.31
2023-03-06T03:30:15.451Z,97093.38
2023-03-06T03:33:18.710Z,97086.72
2023-03-06T03:36:22.421Z,97010.06
2023-03-06T03:39:25.814Z,97092.78
2023-03-06T03:42:29.052Z,97098.91
2023-03-06T03:45:33.675Z,97083.84
2023-03-06T03:48:36.864Z,97085.34
2023-03-06T03:51:41.652Z,97091.31
2023-03-06T03:54:45.113Z,97089.94
2023-03-06T03:57:48.324Z,97086.53
2023-03-06T04:00:53.442Z,97075.94
2023-03-06T04:03:56.571Z,97073.50
2023-03-06T04:07:00.570Z,97066.94
2023-03-06T04:10:03.744Z,97068.97
2023-03-06T04:13:09.955Z,97064.19
2023-03-06T04:16:19.370Z,97062.00
2023-03-06T04:19:22.691Z,97063.63
2023-03-06T04:22:26.464Z,97059.50
2023-03-06T04:25:29.734Z,97056.88
2023-03-06T04:28:34.550Z,97052.88
2023-03-06T04:34:24.286Z,97055.31
2023-03-06T04:37:28.208Z,97051.81
2023-03-06T04:40:34.333Z,97012.88
2023-03-06T04:43:39.455Z,97056.38
2023-03-06T04:46:42.710Z,97044.03
2023-03-06T04:49:47.431Z,97045.13
2023-03-06T04:52:50.974Z,97045.97
2023-03-06T04:55:54.056Z,97040.84
2023-03-06T04:58:57.358Z,97038.94
2023-03-06T05:02:00.446Z,97010.56
2023-03-06T05:05:06.005Z,97023.88
2023-03-06T05:08:13.518Z,97031.31
2023-03-06T05:11:16.801Z,97017.69
2023-03-06T05:14:20.255Z,97031.81
2023-03-06T05:17:23.778Z,97024.53
2023-03-06T05:20:28.623Z,97023.13
2023-03-06T05:23:34.856Z,97019.50
2023-03-06T05:26:37.993Z,97018.78
2023-03-06T05:29:41.195Z,96906.63
2023-03-06T05:32:44.729Z,97018.06
2023-03-06T05:35:50.249Z,97009.00
2023-03-06T05:38:53.726Z,97017.94
2023-03-06T05:41:56.873Z,97015.41
2023-03-06T05:45:00.039Z,97012.75
2023-03-06T05:48:03.265Z,97016.22
2023-03-06T05:51:07.889Z,97013.41
2023-03-06T05:54:11.066Z,97002.50
2023-03-06T05:57:14.298Z,97011.25
2023-03-06T06:00:19.569Z,96994.50
2023-03-06T06:03:23.345Z,97006.03
2023-03-06T06:06:28.252Z,97010.00
2023-03-06T06:09:31.618Z,97006.91
2023-03-06T06:12:34.926Z,96996.59
2023-03-06T06:15:39.031Z,97001.13
2023-03-06T06:18:42.505Z,97003.22
2023-03-06T06:21:49.391Z,97004.97
2023-03-06T06:24:52.570Z,96996.59
2023-03-06T06:27:56.913Z,96994.03
2023-03-06T06:31:00.525Z,96996.34
2023-03-06T06:34:04.440Z,96992.78
2023-03-06T06:37:08.893Z,96992.13
2023-03-06T06:40:13.154Z,96989.31
2023-03-06T06:43:16.302Z,96995.47
2023-03-06T06:47:05.847Z,96993.66
2023-03-06T06:49:43.508Z,96984.69
2023-03-06T06:52:48.345Z,96996.38
2023-03-06T06:56:05.856Z,96988.00
2023-03-06T06:59:16.425Z,96996.13
2023-03-06T07:02:20.571Z,96997.06
2023-03-06T07:05:23.819Z,97002.84
2023-03-06T07:08:27.050Z,97004.28
2023-03-06T07:11:32.562Z,97001.50
2023-03-06T07:14:35.741Z,97008.50
2023-03-06T07:17:38.924Z,97007.50
2023-03-06T07:20:42.316Z,97008.41
2023-03-06T07:23:45.510Z,97007.88
2023-03-06T07:26:50.181Z,97003.13
2023-03-06T07:29:53.637Z,97001.69
2023-03-06T07:32:57.926Z,96967.25
2023-03-06T07:36:01.095Z,97000.91
2023-03-06T07:39:04.634Z,96991.50
2023-03-06T07:42:10.259Z,96997.88
2023-03-06T07:45:22.559Z,96995.94
2023-03-06T07:48:25.771Z,96994.75
2023-03-06T07:51:29.108Z,97000.06
2023-03-06T07:54:32.625Z,96996.63
2023-03-06T07:57:37.348Z,96958.22
2023-03-06T08:00:40.616Z,96999.84
2023-03-06T08:03:45.032Z,96909.81
2023-03-06T08:06:48.294Z,97007.19
2023-03-06T08:09:52.122Z,97007.97
2023-03-06T08:12:56.656Z,97005.31
2023-03-06T08:16:00.769Z,97011.75
2023-03-06T08:19:03.941Z,97002.41
2023-03-06T08:22:07.788Z,97004.69
2023-03-06T08:25:13.175Z,97003.00
2023-03-06T08:28:17.700Z,97015.66
2023-03-06T08:31:27.495Z,97002.44
2023-03-06T08:34:31.762Z,97007.72
2023-03-06T08:37:35.099Z,97008.66
2023-03-06T08:40:38.314Z,97007.59
2023-03-06T08:43:43.074Z,97012.34
2023-03-06T08:46:46.313Z,97009.56
2023-03-06T08:49:49.588Z,97012.53
2023-03-06T08:52:52.710Z,97007.84
2023-03-06T08:55:55.857Z,97001.19
2023-03-06T08:59:02.771Z,97014.44
2023-03-06T09:02:07.572Z,97019.09
2023-03-06T09:05:11.453Z,97012.38
2023-03-06T09:08:14.684Z,97016.53
2023-03-06T09:11:17.880Z,97021.72
2023-03-06T09:14:22.606Z,97016.47
2023-03-06T09:17:26.562Z,97011.88
2023-03-06T09:20:29.945Z,97003.50
2023-03-06T09:23:35.942Z,97011.69
2023-03-06T09:26:46.066Z,97011.66
2023-03-06T09:29:51.771Z,97011.06
2023-03-06T09:32:54.928Z,97004.75
2023-03-06T09:35:58.533Z,96992.53
2023-03-06T09:39:01.758Z,96994.09
2023-03-06T09:42:08.375Z,96996.81
2023-03-06T09:45:14.312Z,96992.19
2023-03-06T09:48:21.643Z,96997.31
2023-03-06T09:51:37.015Z,96996.53
2023-03-06T09:54:46.052Z,97001.50
2023-03-06T09:57:56.436Z,97008.06
2023-03-06T10:01:05.689Z,97003.13
2023-03-06T10:04:23.276Z,97002.56
2023-03-06T10:07:34.399Z,97004.47
2023-03-06T10:10:45.269Z,96999.09
2023-03-06T10:13:51.522Z,96994.19
2023-03-06T10:16:57.013Z,96996.75
2023-03-06T10:20:00.239Z,97007.88
2023-03-06T10:23:15.205Z,97006.34
2023-03-06T10:26:24.037Z,97004.00
2023-03-06T10:29:56.383Z,97010.38
2023-03-06T10:34:29.640Z,97002.81
2023-03-06T10:37:32.827Z,97003.63
2023-03-06T10:40:42.383Z,97004.03
2023-03-06T10:43:46.935Z,97008.31
2023-03-06T10:46:52.535Z,97008.13
2023-03-06T10:50:02.533Z,96999.09
2023-03-06T10:53:08.370Z,96998.81
2023-03-06T10:56:11.456Z,96996.94
2023-03-06T10:59:17.120Z,97001.91
2023-03-06T11:02:32.338Z,97010.38
2023-03-06T11:05:36.945Z,97001.34
2023-03-06T11:08:42.388Z,97000.13
2023-03-06T11:11:45.693Z,96991.94
2023-03-06T11:14:48.884Z,96995.19
2023-03-06T11:17:55.190Z,96982.41
2023-03-06T11:20:59.744Z,96996.56
2023-03-06T11:24:06.869Z,96996.34
2023-03-06T11:27:26.403Z,96990.66
2023-03-06T11:30:38.638Z,96991.78
2023-03-06T11:33:48.419Z,96981.63
2023-03-06T11:36:56.146Z,96985.19
2023-03-06T11:40:07.610Z,96978.91
2023-03-06T11:43:23.278Z,96959.47
2023-03-06T11:46:31.961Z,96978.97
2023-03-06T11:49:42.383Z,96974.28
2023-03-06T11:52:52.302Z,96972.88
2023-03-06T11:56:03.443Z,96966.94
2023-03-06T11:59:42.841Z,96968.03
2023-03-06T12:03:17.816Z,96969.72
2023-03-06T12:06:33.017Z,96964.53
2023-03-06T12:09:47.234Z,96959.41
2023-03-06T12:13:32.684Z,96960.03
2023-03-06T12:17:14.356Z,96964.94
2023-03-06T12:20:29.866Z,96957.13
2023-03-06T12:23:51.662Z,96953.47
2023-03-06T12:27:18.259Z,96942.94
2023-03-06T12:30:44.428Z,96944.66
2023-03-06T12:33:58.394Z,96944.59
2023-03-06T12:37:10.679Z,96922.47
2023-03-06T12:40:37.115Z,96940.97
2023-03-06T12:44:16.318Z,96932.31
2023-03-06T12:47:22.684Z,96925.38
2023-03-06T12:50:27.903Z,96921.53
2023-03-06T12:53:33.811Z,96921.09
2023-03-06T12:56:36.950Z,96922.34
2023-03-06T12:59:44.389Z,96891.03
2023-03-06T13:03:13.828Z,96913.88
2023-03-06T13:06:45.035Z,96920.69
2023-03-06T13:10:08.901Z,96912.88
2023-03-06T13:13:32.040Z,96908.22
2023-03-06T13:16:36.817Z,96912.03
2023-03-06T13:19:40.051Z,96906.03
2023-03-06T13:22:44.890Z,96904.44
2023-03-06T13:25:50.062Z,96904.50
2023-03-06T13:28:54.442Z,96910.91
2023-03-06T13:32:17.802Z,96907.41
2023-03-06T13:35:50.153Z,96902.50
2023-03-06T13:39:11.443Z,96909.63
2023-03-06T13:42:27.602Z,96912.31
2023-03-06T13:45:35.466Z,96901.00
2023-03-06T13:48:45.540Z,96899.56
2023-03-06T13:52:04.865Z,96889.03
2023-03-06T13:55:20.493Z,96901.81
2023-03-06T13:58:41.633Z,96895.00
2023-03-06T14:01:57.803Z,96900.03
2023-03-06T14:05:04.640Z,96902.44
2023-03-06T14:08:11.104Z,96897.34
2023-03-06T14:11:20.817Z,96895.22
2023-03-06T14:14:35.748Z,96893.53
2023-03-06T14:17:39.502Z,96899.22
2023-03-06T14:20:45.969Z,96891.09
2023-03-06T14:24:00.649Z,96900.16
2023-03-06T14:27:04.632Z,96892.56
2023-03-06T14:30:12.693Z,96893.34
2023-03-06T14:33:27.052Z,96905.72
2023-03-06T14:36:35.289Z,96896.31
2023-03-06T14:39:41.163Z,96907.59
2023-03-06T14:42:44.391Z,96894.47
2023-03-06T14:45:53.330Z,96896.03
2023-03-06T14:49:00.068Z,96884.94
2023-03-06T14:52:04.824Z,96891.47
2023-03-06T14:55:12.878Z,96897.47
2023-03-06T14:58:18.017Z,96897.16
2023-03-06T15:01:28.943Z,96901.44
2023-03-06T15:04:39.904Z,96808.09
2023-03-06T15:07:45.099Z,96885.66
2023-03-06T15:10:58.265Z,96881.59
2023-03-06T15:14:03.316Z,96893.66
2023-03-06T15:17:16.739Z,96895.50
2023-03-06T15:20:41.142Z,96885.72
2023-03-06T15:23:47.914Z,96852.59
2023-03-06T15:26:56.171Z,96884.47
2023-03-06T15:30:12.315Z,96894.84
2023-03-06T15:33:25.258Z,96888.75
2023-03-06T15:36:30.848Z,96900.66
2023-03-06T15:39:38.038Z,96898.09
2023-03-06T15:42:43.295Z,96902.25
2023-03-06T15:45:46.766Z,96886.66
2023-03-06T15:48:54.496Z,96904.63
2023-03-06T15:51:57.653Z,96910.06
2023-03-06T15:55:03.203Z,96895.63
2023-03-06T15:58:06.785Z,96900.47
2023-03-06T16:01:16.898Z,96909.03
2023-03-06T16:04:20.983Z,96915.84
2023-03-06T16:07:24.370Z,96915.00
2023-03-06T16:10:31.283Z,96918.25
2023-03-06T16:13:34.766Z,96911.84
2023-03-06T16:16:39.694Z,96911.09
2023-03-06T16:19:43.369Z,96895.09
2023-03-06T16:22:47.525Z,96906.69
2023-03-06T16:25:52.156Z,96900.22
2023-03-06T16:28:55.392Z,96912.84
2023-03-06T16:34:24.573Z,96910.34
2023-03-06T16:37:27.863Z,96909.69
2023-03-06T16:40:37.472Z,96897.09
2023-03-06T16:43:40.568Z,96899.59
2023-03-06T16:46:46.900Z,96911.66
2023-03-06T16:49:55.811Z,96912.50
2023-03-06T16:52:59.928Z,96904.34
2023-03-06T16:56:03.098Z,96910.34
2023-03-06T16:59:06.658Z,96901.06
2023-03-06T17:02:10.751Z,96907.94
2023-03-06T17:05:15.874Z,96891.44
2023-03-06T17:08:19.188Z,96910.50
2023-03-06T17:11:22.363Z,96923.44
2023-03-06T17:14:25.567Z,96923.38
2023-03-06T17:17:29.407Z,96922.13
2023-03-06T17:20:33.930Z,96931.75
2023-03-06T17:23:38.199Z,96932.31
2023-03-06T17:26:41.474Z,96936.16
2023-03-06T17:29:46.131Z,96932.94
2023-03-06T17:32:49.313Z,96942.94
2023-03-06T17:36:00.239Z,96948.38
2023-03-06T17:39:04.263Z,96942.53
2023-03-06T17:42:08.711Z,96949.38
2023-03-06T17:45:12.648Z,96955.41
2023-03-06T17:48:15.869Z,96952.41
2023-03-06T17:51:20.559Z,96952.22
2023-03-06T17:54:26.015Z,96952.59
2023-03-06T17:57:29.173Z,96952.88
2023-03-06T18:00:32.355Z,96949.91
2023-03-06T18:03:38.111Z,96956.97
2023-03-06T18:06:43.393Z,96959.91
2023-03-06T18:09:46.610Z,96952.28
2023-03-06T18:12:49.780Z,96954.78
2023-03-06T18:15:53.051Z,96950.56
2023-03-06T18:18:57.641Z,96944.00
2023-03-06T18:22:02.351Z,96957.53
2023-03-06T18:25:09.190Z,96964.66
2023-03-06T18:28:12.545Z,96951.88
2023-03-06T18:31:17.095Z,96962.25
2023-03-06T18:34:20.354Z,96960.22
2023-03-06T18:37:24.919Z,96963.03
2023-03-06T18:40:28.209Z,96956.25
2023-03-06T18:43:31.510Z,96954.53
2023-03-06T18:46:37.564Z,96959.69
2023-03-06T18:49:42.561Z,96953.44
2023-03-06T18:52:48.505Z,96965.00
2023-03-06T18:55:53.568Z,96963.28
2023-03-06T18:58:56.913Z,96964.06
2023-03-06T19:02:00.364Z,96957.75
2023-03-06T19:05:03.593Z,96966.66
2023-03-06T19:08:08.195Z,96964.06
2023-03-06T19:11:13.680Z,96957.03
2023-03-06T19:14:17.264Z,96961.06
2023-03-06T19:17:20.407Z,96972.91
2023-03-06T19:20:24.298Z,96967.16
2023-03-06T19:23:28.843Z,96973.84
2023-03-06T19:26:32.496Z,96962.91
2023-03-06T19:29:35.608Z,96970.56
2023-03-06T19:32:38.925Z,96971.41
2023-03-06T19:35:42.354Z,96973.47
2023-03-06T19:38:50.274Z,96973.47
2023-03-06T19:41:53.594Z,96974.28
2023-03-06T19:44:56.778Z,96976.81
2023-03-06T19:48:00.939Z,96977.50
2023-03-06T19:51:05.168Z,96969.56
2023-03-06T19:54:11.751Z,96971.09
2023-03-06T19:57:15.172Z,96976.34
2023-03-06T20:00:19.647Z,96967.00
2023-03-06T20:03:22.898Z,96972.34
2023-03-06T20:06:33.521Z,96959.63
2023-03-06T20:09:38.572Z,96974.94
2023-03-06T20:12:41.746Z,96972.81
2023-03-06T20:15:44.909Z,96972.03
2023-03-06T20:18:48.212Z,96968.00
2023-03-06T20:21:51.465Z,96966.28
2023-03-06T20:24:56.017Z,96956.66
2023-03-06T20:27:59.281Z,96955.06
2023-03-06T20:31:07.652Z,96960.59
2023-03-06T20:34:11.900Z,96957.66
2023-03-06T20:37:15.223Z,96959.28
2023-03-06T20:40:20.098Z,96962.88
2023-03-06T20:43:26.556Z,96959.06
2023-03-06T20:46:30.217Z,96965.88
2023-03-06T20:49:33.802Z,96962.31
2023-03-06T20:52:36.946Z,96965.53
2023-03-06T20:55:44.232Z,96955.22
2023-03-06T20:58:47.411Z,96956.00
2023-03-06T21:01:50.815Z,96950.75
2023-03-06T21:04:54.059Z,96950.44
2023-03-06T21:07:57.214Z,96956.16
2023-03-06T21:11:01.731Z,96960.66
2023-03-06T21:14:05.395Z,96949.50
2023-03-06T21:17:08.651Z,96934.53
2023-03-06T21:20:12.668Z,96918.50
2023-03-06T21:23:15.970Z,96945.44
2023-03-06T21:26:22.238Z,96941.16
2023-03-06T21:29:25.488Z,96935.72
2023-03-06T21:32:29.086Z,96935.22
2023-03-06T21:35:32.287Z,96940.31
2023-03-06T21:38:35.835Z,96937.66
2023-03-06T21:41:41.755Z,96930.31
2023-03-06T21:44:45.219Z,96935.06
2023-03-06T21:47:48.922Z,96926.72
2023-03-06T21:50:52.179Z,96922.34
2023-03-06T21:53:55.852Z,96910.28
2023-03-06T21:57:00.340Z,96921.78
2023-03-06T22:00:04.763Z,96921.78
2023-03-06T22:03:13.524Z,96914.16
2023-03-06T22:06:18.799Z,96898.34
2023-03-06T22:09:22.132Z,96833.19
2023-03-06T22:12:27.134Z,96910.72
2023-03-06T22:15:30.254Z,96911.63
2023-03-06T22:18:34.360Z,96916.94
2023-03-06T22:21:38.457Z,96906.72
2023-03-06T22:24:41.657Z,96905.56
2023-03-06T22:27:46.248Z,96901.00
2023-03-06T22:34:23.827Z,96908.72
2023-03-06T22:37:27.023Z,96904.03
2023-03-06T22:40:30.195Z,96902.34
2023-03-06T22:43:34.967Z,96897.13
2023-03-06T22:46:39.410Z,96890.00
2023-03-06T22:49:43.884Z,96896.38
2023-03-06T22:52:47.204Z,96895.78
2023-03-06T22:55:50.449Z,96897.06
2023-03-06T22:58:53.598Z,96894.06
2023-03-06T23:01:56.700Z,96892.19
2023-03-06T23:05:01.199Z,96896.34
2023-03-06T23:08:04.324Z,96894.94
2023-03-06T23:11:10.132Z,96891.34
2023-03-06T23:14:32.687Z,96895.81
2023-03-06T23:17:55.100Z,96892.41
2023-03-06T23:21:19.812Z,96881.97
2023-03-06T23:24:41.490Z,96879.06
2023-03-06T23:27:44.671Z,96878.91
2023-03-06T23:30:48.180Z,96884.41
2023-03-06T23:33:51.481Z,96884.44
2023-03-06T23:36:56.231Z,96876.25
2023-03-06T23:39:59.509Z,96886.41
2023-03-06T23:43:03.691Z,96881.88
2023-03-06T23:46:08.141Z,96881.16
2023-03-06T23:49:11.367Z,96885.38
2023-03-06T23:52:15.851Z,96882.81
2023-03-06T23:55:19.190Z,96882.06
2023-03-06T23:58:22.418Z,96871.63
